createdAt,value
2022-09-11T00:01:28.411Z,15.65
2022-09-11T00:06:52.811Z,15.58
2022-09-11T00:11:47.340Z,15.54
2022-09-11T00:13:45.374Z,15.54
2022-09-11T00:16:03.198Z,15.52
2022-09-11T00:22:42.101Z,15.54
2022-09-11T00:26:39.799Z,15.57
2022-09-11T00:30:56.241Z,15.57
2022-09-11T00:32:25.091Z,15.58
2022-09-11T00:33:53.998Z,15.58
2022-09-11T00:40:05.375Z,15.46
2022-09-11T00:42:04.099Z,15.44
2022-09-11T00:55:59.448Z,15.39
2022-09-11T01:09:05.925Z,15.43
2022-09-11T01:15:46.599Z,15.49
2022-09-11T01:18:42.397Z,15.47
2022-09-11T01:20:11.278Z,15.51
2022-09-11T01:22:39.959Z,15.49
2022-09-11T01:25:07.854Z,15.49
2022-09-11T01:26:37.935Z,15.49
2022-09-11T01:28:07.853Z,15.47
2022-09-11T01:29:34.783Z,15.51
2022-09-11T01:32:02.966Z,15.49
2022-09-11T01:35:00.591Z,15.46
2022-09-11T01:46:13.447Z,15.44
2022-09-11T01:52:34.073Z,15.43
2022-09-11T01:56:01.528Z,15.40
2022-09-11T02:00:00.227Z,15.39
2022-09-11T02:01:29.209Z,15.37
2022-09-11T02:04:28.255Z,15.36
2022-09-11T02:12:59.407Z,15.35
2022-09-11T02:15:56.239Z,15.33
2022-09-11T02:17:26.134Z,15.31
2022-09-11T02:24:58.832Z,15.27
2022-09-11T02:27:27.861Z,15.28
2022-09-11T02:29:25.688Z,15.28
2022-09-11T02:30:54.613Z,15.27
2022-09-11T02:34:40.142Z,15.27
2022-09-11T02:36:09.025Z,15.27
2022-09-11T02:39:35.713Z,15.25
2022-09-11T02:45:46.235Z,15.25
2022-09-11T02:47:14.764Z,15.25
2022-09-11T02:48:43.717Z,15.27
2022-09-11T02:50:13.644Z,15.27
2022-09-11T02:51:42.725Z,15.27
2022-09-11T02:54:12.620Z,15.25
2022-09-11T02:56:10.494Z,15.24
2022-09-11T03:01:43.584Z,15.25
2022-09-11T03:03:12.405Z,15.25
2022-09-11T03:05:39.056Z,15.24
2022-09-11T03:13:34.949Z,15.22
2022-09-11T03:15:02.885Z,15.24
2022-09-11T03:17:01.740Z,15.22
2022-09-11T03:19:29.499Z,15.21
2022-09-11T03:21:28.473Z,15.21
2022-09-11T03:24:25.595Z,15.19
2022-09-11T03:30:17.792Z,15.15
2022-09-11T03:35:13.337Z,15.10
2022-09-11T03:37:41.150Z,15.09
2022-09-11T03:39:10.979Z,15.09
2022-09-11T03:40:40.856Z,15.07
2022-09-11T03:42:39.627Z,15.07
2022-09-11T03:45:07.498Z,15.09
2022-09-11T03:46:39.619Z,15.09
2022-09-11T03:50:36.195Z,15.07
2022-09-11T03:52:06.131Z,15.06
2022-09-11T03:59:16.355Z,15.04
2022-09-11T04:00:45.279Z,15.04
2022-09-11T04:03:11.880Z,15.02
2022-09-11T04:07:26.324Z,15.04
2022-09-11T04:12:12.037Z,15.03
2022-09-11T04:13:41.180Z,15.04
2022-09-11T04:15:10.470Z,15.04
2022-09-11T04:16:38.963Z,15.04
2022-09-11T04:18:08.718Z,15.04
2022-09-11T04:19:38.621Z,15.04
2022-09-11T04:21:08.484Z,15.03
2022-09-11T04:23:35.204Z,15.03
2022-09-11T04:26:33.998Z,15.04
2022-09-11T04:28:32.747Z,15.04
2022-09-11T04:31:58.495Z,15.04
2022-09-11T04:33:28.290Z,15.04
2022-09-11T04:38:35.230Z,15.06
2022-09-11T04:40:34.104Z,15.09
2022-09-11T04:42:03.151Z,15.07
2022-09-11T04:52:31.858Z,15.11
2022-09-11T04:54:30.680Z,15.15
2022-09-11T04:59:44.756Z,15.18
2022-09-11T05:02:52.127Z,15.19
2022-09-11T05:04:25.962Z,15.18
2022-09-11T05:06:49.773Z,15.19
2022-09-11T05:08:19.636Z,15.21
2022-09-11T05:17:38.274Z,15.22
2022-09-11T05:19:36.050Z,15.22
2022-09-11T05:21:04.941Z,15.22
2022-09-11T05:22:34.827Z,15.22
2022-09-11T05:25:02.756Z,15.24
2022-09-11T05:26:32.726Z,15.24
2022-09-11T05:28:02.627Z,15.24
2022-09-11T05:30:30.457Z,15.25
2022-09-11T05:34:25.060Z,15.27
2022-09-11T05:37:50.683Z,15.28
2022-09-11T05:45:30.990Z,15.29
2022-09-11T05:47:48.680Z,15.33
2022-09-11T05:49:48.430Z,15.33
2022-09-11T05:51:47.135Z,15.33
2022-09-11T05:55:42.001Z,15.36
2022-09-11T05:57:10.943Z,15.36
2022-09-11T05:58:39.829Z,15.37
2022-09-11T06:02:05.481Z,15.39
2022-09-11T06:13:21.024Z,15.39
2022-09-11T06:15:47.763Z,15.39
2022-09-11T06:17:45.989Z,15.37
2022-09-11T06:20:12.870Z,15.39
2022-09-11T06:25:17.230Z,15.39
2022-09-11T06:28:15.313Z,15.40
2022-09-11T06:33:21.341Z,15.43
2022-09-11T06:37:17.026Z,15.46
2022-09-11T06:39:14.808Z,15.46
2022-09-11T06:41:12.634Z,15.49
2022-09-11T06:53:26.433Z,15.58
2022-09-11T06:56:53.316Z,15.64
2022-09-11T06:59:49.871Z,15.65
2022-09-11T07:02:48.627Z,15.72
2022-09-11T07:04:46.486Z,15.73
2022-09-11T07:10:04.498Z,15.77
2022-09-11T07:12:32.467Z,15.82
2022-09-11T07:15:49.982Z,15.83
2022-09-11T07:19:16.484Z,15.83
2022-09-11T07:24:40.058Z,15.90
2022-09-11T07:29:54.298Z,15.91
2022-09-11T07:33:39.537Z,15.92
2022-09-11T07:40:04.934Z,15.97
2022-09-11T07:41:33.806Z,16.01
2022-09-11T07:43:32.663Z,16.05
2022-09-11T07:48:29.292Z,16.16
2022-09-11T07:50:27.024Z,16.20
2022-09-11T07:51:55.889Z,16.21
2022-09-11T07:55:41.213Z,16.29
2022-09-11T07:58:08.353Z,16.32
2022-09-11T08:03:31.116Z,16.41
2022-09-11T08:05:29.866Z,16.42
2022-09-11T08:06:59.762Z,16.46
2022-09-11T08:08:58.738Z,16.49
2022-09-11T08:14:24.584Z,16.61
2022-09-11T08:21:36.727Z,16.74
2022-09-11T08:30:33.609Z,16.90
2022-09-11T08:35:00.459Z,16.97
2022-09-11T08:37:28.474Z,17.01
2022-09-11T08:38:58.381Z,17.01
2022-09-11T08:40:27.274Z,17.04
2022-09-11T08:42:25.060Z,17.06
2022-09-11T08:44:25.811Z,17.12
2022-09-11T08:45:52.809Z,17.14
2022-09-11T08:47:21.670Z,17.14
2022-09-11T08:49:19.517Z,17.15
2022-09-11T08:50:48.737Z,17.16
2022-09-11T08:56:46.971Z,17.24
2022-09-11T08:58:43.116Z,17.24
2022-09-11T09:00:43.899Z,17.24
2022-09-11T09:02:11.817Z,17.24
2022-09-11T09:03:40.830Z,17.24
2022-09-11T09:06:13.725Z,17.27
2022-09-11T09:08:11.539Z,17.29
2022-09-11T09:10:40.961Z,17.31
2022-09-11T09:13:09.672Z,17.38
2022-09-11T09:17:35.547Z,17.52
2022-09-11T09:19:04.460Z,17.56
2022-09-11T09:20:33.334Z,17.60
2022-09-11T09:22:33.172Z,17.67
2022-09-11T09:25:31.783Z,17.68
2022-09-11T09:27:59.948Z,17.74
2022-09-11T09:33:45.008Z,17.86
2022-09-11T09:38:13.145Z,18.00
2022-09-11T09:44:31.375Z,18.16
2022-09-11T09:46:01.362Z,18.19
2022-09-11T09:47:59.292Z,18.33
2022-09-11T09:53:12.351Z,18.56
2022-09-11T09:55:12.105Z,18.62
2022-09-11T10:01:02.795Z,18.84
2022-09-11T10:03:32.754Z,18.89
2022-09-11T10:09:00.167Z,18.92
2022-09-11T10:11:26.256Z,18.96
2022-09-11T10:13:25.192Z,18.99
2022-09-11T10:14:55.056Z,18.99
2022-09-11T10:16:55.072Z,18.99
2022-09-11T10:18:53.915Z,18.99
2022-09-11T10:27:33.911Z,19.34
2022-09-11T10:29:03.012Z,19.47
2022-09-11T10:30:31.909Z,19.51
2022-09-11T10:33:03.588Z,19.67
2022-09-11T10:35:58.165Z,19.89
2022-09-11T10:42:53.861Z,20.44
2022-09-11T10:48:38.031Z,20.90
2022-09-11T10:55:59.415Z,21.30
2022-09-11T11:01:34.242Z,21.11
2022-09-11T11:04:24.002Z,20.96
2022-09-11T11:07:23.595Z,20.97
2022-09-11T11:13:14.914Z,21.39
2022-09-11T11:15:14.897Z,21.62
2022-09-11T11:17:34.616Z,21.88
2022-09-11T11:25:04.348Z,22.51
2022-09-11T11:27:32.704Z,22.78
2022-09-11T11:29:21.332Z,22.87
2022-09-11T11:32:21.975Z,23.05
2022-09-11T11:34:22.789Z,22.88
2022-09-11T11:37:23.338Z,22.73
2022-09-11T11:39:24.118Z,22.62
2022-09-11T11:40:54.906Z,22.57
2022-09-11T11:43:12.751Z,22.36
2022-09-11T11:47:34.625Z,22.08
2022-09-11T11:49:37.670Z,21.95
2022-09-11T11:51:06.491Z,21.83
2022-09-11T11:54:31.509Z,21.60
2022-09-11T11:59:00.986Z,21.43
2022-09-11T12:00:27.714Z,21.36
2022-09-11T12:02:49.583Z,21.29
2022-09-11T12:05:07.554Z,21.21
2022-09-11T12:07:28.038Z,21.18
2022-09-11T12:10:30.091Z,21.46
2022-09-11T12:12:30.241Z,21.77
2022-09-11T12:18:09.732Z,22.70
2022-09-11T12:19:37.773Z,22.91
2022-09-11T12:21:38.452Z,23.20
2022-09-11T12:24:59.164Z,23.59
2022-09-11T12:26:45.519Z,23.86
2022-09-11T12:29:03.154Z,24.14
2022-09-11T12:32:12.354Z,24.53
2022-09-11T12:34:30.034Z,24.73
2022-09-11T12:37:18.748Z,24.84
2022-09-11T12:38:47.649Z,24.91
2022-09-11T12:45:16.528Z,25.23
2022-09-11T13:00:41.932Z,25.68
2022-09-11T13:04:07.544Z,25.44
2022-09-11T13:07:38.164Z,25.43
2022-09-11T13:12:41.997Z,25.13
2022-09-11T13:14:41.316Z,24.96
2022-09-11T13:16:41.341Z,24.69
2022-09-11T13:19:38.153Z,24.16
2022-09-11T13:22:07.054Z,23.87
2022-09-11T13:23:36.913Z,23.92
2022-09-11T13:29:01.698Z,24.02
2022-09-11T13:33:27.267Z,24.11
2022-09-11T13:38:24.682Z,24.24
2022-09-11T13:41:22.767Z,24.13
2022-09-11T13:43:20.753Z,24.06
2022-09-11T13:45:48.444Z,23.87
2022-09-11T13:47:18.581Z,23.81
2022-09-11T13:51:14.792Z,23.56
2022-09-11T13:53:11.043Z,23.47
2022-09-11T13:58:19.476Z,23.24
2022-09-11T14:01:09.145Z,23.12
2022-09-11T14:03:06.256Z,23.08
2022-09-11T14:06:22.940Z,22.88
2022-09-11T14:08:57.649Z,22.85
2022-09-11T14:10:56.882Z,22.84
2022-09-11T14:15:04.522Z,22.85
2022-09-11T14:16:33.427Z,22.84
2022-09-11T14:20:01.104Z,22.83
2022-09-11T14:23:15.647Z,22.75
2022-09-11T14:26:35.089Z,22.65
2022-09-11T14:28:06.977Z,22.60
2022-09-11T14:29:34.899Z,22.60
2022-09-11T14:33:24.396Z,22.53
2022-09-11T14:40:02.664Z,22.39
2022-09-11T14:41:33.460Z,22.33
2022-09-11T14:43:03.320Z,22.28
2022-09-11T14:44:52.096Z,22.26
2022-09-11T14:47:37.820Z,22.18
2022-09-11T14:51:24.092Z,22.11
2022-09-11T14:53:21.490Z,22.10
2022-09-11T14:55:52.810Z,22.07
2022-09-11T15:08:46.677Z,21.77
2022-09-11T15:11:07.366Z,21.77
2022-09-11T15:12:34.373Z,21.77
2022-09-11T15:14:16.319Z,21.75
2022-09-11T15:16:53.988Z,21.72
2022-09-11T15:21:43.809Z,21.60
2022-09-11T15:24:16.477Z,21.57
2022-09-11T15:27:04.219Z,21.55
2022-09-11T15:33:25.297Z,21.51
2022-09-11T15:36:02.719Z,21.48
2022-09-11T15:41:10.707Z,21.48
2022-09-11T15:44:13.246Z,21.48
2022-09-11T15:46:11.525Z,21.48
2022-09-11T15:48:29.235Z,21.46
2022-09-11T15:49:59.912Z,21.50
2022-09-11T15:58:37.271Z,21.40
2022-09-11T16:01:56.920Z,21.37
2022-09-11T16:03:56.835Z,21.36
2022-09-11T16:05:25.683Z,21.35
2022-09-11T16:07:23.637Z,21.35
2022-09-11T16:15:52.149Z,21.30
2022-09-11T16:21:29.376Z,21.30
2022-09-11T16:23:27.155Z,21.30
2022-09-11T16:25:26.230Z,21.25
2022-09-11T16:28:58.050Z,21.24
2022-09-11T16:33:55.595Z,21.18
2022-09-11T16:38:32.345Z,21.12
2022-09-11T16:41:30.728Z,21.06
2022-09-11T16:44:17.019Z,21.02
2022-09-11T16:46:16.767Z,21.00
2022-09-11T16:48:14.930Z,20.97
2022-09-11T16:50:14.970Z,20.96
2022-09-11T16:51:44.754Z,20.96
2022-09-11T16:54:48.782Z,20.95
2022-09-11T16:58:06.058Z,20.92
2022-09-11T17:04:01.999Z,20.80
2022-09-11T17:05:31.923Z,20.75
2022-09-11T17:07:00.841Z,20.75
2022-09-11T17:12:38.810Z,20.67
2022-09-11T17:14:38.174Z,20.69
2022-09-11T17:16:36.287Z,20.67
2022-09-11T17:19:04.722Z,20.62
2022-09-11T17:23:19.268Z,20.59
2022-09-11T17:26:51.695Z,20.55
2022-09-11T17:31:09.971Z,20.48
2022-09-11T17:33:29.059Z,20.47
2022-09-11T17:35:17.433Z,20.44
2022-09-11T17:42:56.481Z,20.26
2022-09-11T17:45:42.936Z,20.22
2022-09-11T17:49:05.960Z,20.16
2022-09-11T17:51:55.465Z,20.14
2022-09-11T17:55:02.959Z,20.10
2022-09-11T17:57:00.533Z,20.09
2022-09-11T17:59:04.247Z,20.06
2022-09-11T18:01:29.550Z,20.04
2022-09-11T18:03:49.130Z,20.03
2022-09-11T18:06:11.768Z,20.00
2022-09-11T18:11:49.230Z,19.89
2022-09-11T18:15:58.276Z,19.82
2022-09-11T18:17:28.122Z,19.81
2022-09-11T18:24:25.033Z,19.69
2022-09-11T18:29:00.249Z,19.58
2022-09-11T18:31:50.157Z,19.51
2022-09-11T18:34:18.563Z,19.48
2022-09-11T18:37:20.757Z,19.44
2022-09-11T18:40:33.258Z,19.37
2022-09-11T18:52:22.652Z,19.15
2022-09-11T18:56:53.749Z,19.09
2022-09-11T18:58:21.707Z,19.07
2022-09-11T19:00:52.753Z,19.02
2022-09-11T19:05:25.557Z,18.99
2022-09-11T19:10:03.982Z,18.99
2022-09-11T19:12:00.444Z,18.99
2022-09-11T19:14:29.989Z,18.98
2022-09-11T19:16:27.862Z,18.98
2022-09-11T19:17:57.246Z,18.96
2022-09-11T19:24:26.812Z,18.96
2022-09-11T19:25:56.706Z,18.93
2022-09-11T19:28:54.799Z,18.93
2022-09-11T19:30:24.736Z,18.92
2022-09-11T19:32:28.834Z,18.89
2022-09-11T19:33:57.870Z,18.89
2022-09-11T19:35:26.878Z,18.89
2022-09-11T19:39:17.365Z,18.84
2022-09-11T19:40:47.362Z,18.86
2022-09-11T19:42:46.394Z,18.84
2022-09-11T19:48:14.013Z,18.81
2022-09-11T19:50:15.756Z,18.80
2022-09-11T19:52:35.429Z,18.77
2022-09-11T19:55:33.354Z,18.77
2022-09-11T19:59:05.150Z,18.73
2022-09-11T20:00:34.163Z,18.73
2022-09-11T20:02:32.991Z,18.73
2022-09-11T20:04:53.582Z,18.71
2022-09-11T20:07:22.150Z,18.70
2022-09-11T20:11:37.025Z,18.66
2022-09-11T20:13:06.365Z,18.66
2022-09-11T20:14:37.411Z,18.65
2022-09-11T20:17:52.385Z,18.65
2022-09-11T20:19:22.325Z,18.62
2022-09-11T20:21:55.278Z,18.60
2022-09-11T20:25:41.009Z,18.60
2022-09-11T20:36:11.740Z,18.53
2022-09-11T20:41:27.608Z,18.50
2022-09-11T20:43:57.516Z,18.49
2022-09-11T20:48:23.124Z,18.44
2022-09-11T20:50:49.349Z,18.43
2022-09-11T20:53:07.957Z,18.38
2022-09-11T21:01:26.128Z,18.28
2022-09-11T21:04:13.341Z,18.23
2022-09-11T21:10:44.594Z,18.16
2022-09-11T21:12:15.433Z,18.13
2022-09-11T21:17:28.002Z,18.03
2022-09-11T21:24:15.906Z,17.89
2022-09-11T21:29:22.112Z,17.82
2022-09-11T21:31:19.982Z,17.76
2022-09-11T21:33:17.761Z,17.74
2022-09-11T21:35:49.415Z,17.70
2022-09-11T21:38:16.179Z,17.67
2022-09-11T21:40:45.153Z,17.63
2022-09-11T21:49:41.766Z,17.49
2022-09-11T21:51:41.633Z,17.46
2022-09-11T21:55:01.780Z,17.42
2022-09-11T21:58:50.558Z,17.33
2022-09-11T22:01:20.005Z,17.29
2022-09-11T22:03:48.768Z,17.24
2022-09-11T22:06:11.269Z,17.19
2022-09-11T22:07:38.214Z,17.14
2022-09-11T22:13:41.031Z,17.05
2022-09-11T22:17:13.209Z,16.99
2022-09-11T22:23:43.860Z,16.89
2022-09-11T22:26:12.790Z,16.84
2022-09-11T22:28:44.930Z,16.81
2022-09-11T22:30:13.806Z,16.78
2022-09-11T22:31:44.690Z,16.78
2022-09-11T22:33:11.709Z,16.76
2022-09-11T22:35:10.452Z,16.75
2022-09-11T22:37:10.266Z,16.72
2022-09-11T22:39:10.042Z,16.68
2022-09-11T22:41:41.651Z,16.64
2022-09-11T22:43:10.668Z,16.64
2022-09-11T22:44:37.617Z,16.60
2022-09-11T22:46:08.524Z,16.58
2022-09-11T22:52:15.375Z,16.53
2022-09-11T22:57:03.626Z,16.47
2022-09-11T23:01:29.188Z,16.41
2022-09-11T23:05:17.117Z,16.36
2022-09-11T23:09:56.311Z,16.31
2022-09-11T23:11:26.278Z,16.29
2022-09-11T23:12:56.126Z,16.26
2022-09-11T23:17:33.414Z,16.20
2022-09-11T23:19:32.207Z,16.17
2022-09-11T23:22:29.043Z,16.15
2022-09-11T23:23:57.988Z,16.13
2022-09-11T23:29:56.486Z,16.08
2022-09-11T23:34:40.067Z,16.01
2022-09-11T23:36:07.168Z,15.98
2022-09-11T23:39:09.978Z,15.95
2022-09-11T23:40:40.842Z,15.95
2022-09-11T23:48:42.235Z,15.82
2022-09-11T23:50:59.808Z,15.77
2022-09-11T23:52:31.389Z,15.75
2022-09-11T23:58:59.599Z,15.67
